sensor_id;sensor_type;location;lat;lon;timestamp;temperature;humidity
41060;DHT22;26811;53.160;8.202;2023-12-29T00:04:41;10.70;99.90
41060;DHT22;26811;53.160;8.202;2023-12-29T00:09:42;10.70;99.90
41060;DHT22;26811;53.160;8.202;2023-12-29T00:14:43;10.70;99.90
41060;DHT22;26811;53.160;8.202;2023-12-29T00:19:44;10.70;99.90
41060;DHT22;26811;53.160;8.202;2023-12-29T00:24:44;10.70;99.90
41060;DHT22;26811;53.160;8.202;2023-12-29T00:29:45;10.60;99.90
41060;DHT22;26811;53.160;8.202;2023-12-29T00:34:45;10.60;99.90
41060;DHT22;26811;53.160;8.202;2023-12-29T00:39:46;10.50;99.90
41060;DHT22;26811;53.160;8.202;2023-12-29T00:44:46;10.50;99.90
41060;DHT22;26811;53.160;8.202;2023-12-29T00:49:47;10.50;99.90
41060;DHT22;26811;53.160;8.202;2023-12-29T00:54:47;10.50;99.90
41060;DHT22;26811;53.160;8.202;2023-12-29T00:59:48;10.40;99.90
41060;DHT22;26811;53.160;8.202;2023-12-29T01:04:52;10.40;99.90
41060;DHT22;26811;53.160;8.202;2023-12-29T01:09:56;10.40;99.90
41060;DHT22;26811;53.160;8.202;2023-12-29T01:14:57;10.40;99.90
41060;DHT22;26811;53.160;8.202;2023-12-29T01:19:58;10.40;99.90
41060;DHT22;26811;53.160;8.202;2023-12-29T01:24:59;10.40;99.90
41060;DHT22;26811;53.160;8.202;2023-12-29T01:30:00;10.40;99.90
41060;DHT22;26811;53.160;8.202;2023-12-29T01:35:01;10.40;99.90
41060;DHT22;26811;53.160;8.202;2023-12-29T01:40:01;10.50;99.90
41060;DHT22;26811;53.160;8.202;2023-12-29T01:45:02;10.40;99.90
41060;DHT22;26811;53.160;8.202;2023-12-29T01:50:03;10.30;99.90
41060;DHT22;26811;53.160;8.202;2023-12-29T01:55:04;10.10;99.90
41060;DHT22;26811;53.160;8.202;2023-12-29T02:00:06;10.00;99.90
41060;DHT22;26811;53.160;8.202;2023-12-29T02:05:07;9.90;99.90
41060;DHT22;26811;53.160;8.202;2023-12-29T02:10:08;9.90;99.90
41060;DHT22;26811;53.160;8.202;2023-12-29T02:15:09;9.90;99.90
41060;DHT22;26811;53.160;8.202;2023-12-29T02:20:10;9.80;99.90
41060;DHT22;26811;53.160;8.202;2023-12-29T02:25:14;9.70;99.90
41060;DHT22;26811;53.160;8.202;2023-12-29T02:35:28;9.50;99.90
41060;DHT22;26811;53.160;8.202;2023-12-29T02:40:29;9.50;99.90
41060;DHT22;26811;53.160;8.202;2023-12-29T02:45:29;9.40;99.90
41060;DHT22;26811;53.160;8.202;2023-12-29T02:50:30;9.40;99.90
41060;DHT22;26811;53.160;8.202;2023-12-29T02:55:31;9.30;99.90
41060;DHT22;26811;53.160;8.202;2023-12-29T03:00:31;9.30;99.90
41060;DHT22;26811;53.160;8.202;2023-12-29T03:05:32;9.30;99.90
41060;DHT22;26811;53.160;8.202;2023-12-29T03:10:32;9.30;99.90
41060;DHT22;26811;53.160;8.202;2023-12-29T03:15:33;9.20;99.90
41060;DHT22;26811;53.160;8.202;2023-12-29T03:20:33;8.60;99.90
41060;DHT22;26811;53.160;8.202;2023-12-29T03:25:34;6.80;99.90
41060;DHT22;26811;53.160;8.202;2023-12-29T03:30:34;5.90;99.90
41060;DHT22;26811;53.160;8.202;2023-12-29T03:35:35;5.60;99.90
41060;DHT22;26811;53.160;8.202;2023-12-29T03:40:35;5.60;99.90
41060;DHT22;26811;53.160;8.202;2023-12-29T03:45:36;5.80;99.90
41060;DHT22;26811;53.160;8.202;2023-12-29T03:50:36;6.00;99.90
41060;DHT22;26811;53.160;8.202;2023-12-29T03:55:37;6.20;99.90
41060;DHT22;26811;53.160;8.202;2023-12-29T04:00:38;6.50;99.90
41060;DHT22;26811;53.160;8.202;2023-12-29T04:05:41;6.70;99.90
41060;DHT22;26811;53.160;8.202;2023-12-29T04:10:42;7.00;99.90
41060;DHT22;26811;53.160;8.202;2023-12-29T04:15:43;7.10;99.90
41060;DHT22;26811;53.160;8.202;2023-12-29T04:20:43;7.40;99.90
41060;DHT22;26811;53.160;8.202;2023-12-29T04:25:44;7.50;99.90
41060;DHT22;26811;53.160;8.202;2023-12-29T04:30:44;7.50;99.90
41060;DHT22;26811;53.160;8.202;2023-12-29T04:35:45;7.60;99.90
41060;DHT22;26811;53.160;8.202;2023-12-29T04:40:46;7.80;99.90
41060;DHT22;26811;53.160;8.202;2023-12-29T04:45:47;8.00;99.90
41060;DHT22;26811;53.160;8.202;2023-12-29T04:50:48;8.20;99.90
41060;DHT22;26811;53.160;8.202;2023-12-29T04:55:48;8.40;99.90
41060;DHT22;26811;53.160;8.202;2023-12-29T05:00:49;8.50;99.90
41060;DHT22;26811;53.160;8.202;2023-12-29T05:05:49;8.50;99.90
41060;DHT22;26811;53.160;8.202;2023-12-29T05:10:50;8.60;99.90
41060;DHT22;26811;53.160;8.202;2023-12-29T05:15:50;8.60;99.90
41060;DHT22;26811;53.160;8.202;2023-12-29T05:20:51;8.50;99.90
41060;DHT22;26811;53.160;8.202;2023-12-29T05:25:51;8.50;99.90
41060;DHT22;26811;53.160;8.202;2023-12-29T05:30:52;8.50;99.90
41060;DHT22;26811;53.160;8.202;2023-12-29T05:35:52;8.40;99.90
41060;DHT22;26811;53.160;8.202;2023-12-29T05:40:53;8.40;99.90
41060;DHT22;26811;53.160;8.202;2023-12-29T05:45:53;8.40;99.90
41060;DHT22;26811;53.160;8.202;2023-12-29T05:50:54;8.40;99.90
41060;DHT22;26811;53.160;8.202;2023-12-29T05:55:54;8.50;99.90
41060;DHT22;26811;53.160;8.202;2023-12-29T06:00:55;8.40;99.90
41060;DHT22;26811;53.160;8.202;2023-12-29T06:05:56;8.40;99.90
41060;DHT22;26811;53.160;8.202;2023-12-29T06:10:56;8.40;99.90
41060;DHT22;26811;53.160;8.202;2023-12-29T06:15:57;8.40;99.90
41060;DHT22;26811;53.160;8.202;2023-12-29T06:20:58;8.40;99.90
41060;DHT22;26811;53.160;8.202;2023-12-29T06:25:58;8.40;99.90
41060;DHT22;26811;53.160;8.202;2023-12-29T06:30:59;8.40;99.90
41060;DHT22;26811;53.160;8.202;2023-12-29T06:35:59;8.40;99.90
41060;DHT22;26811;53.160;8.202;2023-12-29T06:41:02;8.40;99.90
41060;DHT22;26811;53.160;8.202;2023-12-29T06:46:03;8.30;99.90
41060;DHT22;26811;53.160;8.202;2023-12-29T06:51:04;8.40;99.90
41060;DHT22;26811;53.160;8.202;2023-12-29T06:56:05;8.40;99.90
41060;DHT22;26811;53.160;8.202;2023-12-29T07:01:06;8.40;99.90
41060;DHT22;26811;53.160;8.202;2023-12-29T07:06:06;8.60;99.90
41060;DHT22;26811;53.160;8.202;2023-12-29T07:11:10;8.50;99.90
41060;DHT22;26811;53.160;8.202;2023-12-29T07:16:12;8.50;99.90
41060;DHT22;26811;53.160;8.202;2023-12-29T07:21:14;8.40;99.90
41060;DHT22;26811;53.160;8.202;2023-12-29T07:26:14;8.40;99.90
41060;DHT22;26811;53.160;8.202;2023-12-29T07:31:15;8.40;99.90
41060;DHT22;26811;53.160;8.202;2023-12-29T07:36:16;8.50;99.90
41060;DHT22;26811;53.160;8.202;2023-12-29T07:41:16;8.60;99.90
41060;DHT22;26811;53.160;8.202;2023-12-29T07:46:25;8.60;99.90
41060;DHT22;26811;53.160;8.202;2023-12-29T07:51:26;8.60;99.90
41060;DHT22;26811;53.160;8.202;2023-12-29T07:56:27;8.70;99.90
41060;DHT22;26811;53.160;8.202;2023-12-29T08:01:28;8.80;99.90
41060;DHT22;26811;53.160;8.202;2023-12-29T08:06:29;8.90;99.90
41060;DHT22;26811;53.160;8.202;2023-12-29T08:11:29;8.90;99.90
41060;DHT22;26811;53.160;8.202;2023-12-29T08:16:30;9.00;99.90
41060;DHT22;26811;53.160;8.202;2023-12-29T08:21:32;9.10;99.90
41060;DHT22;26811;53.160;8.202;2023-12-29T08:26:32;9.10;99.90
41060;DHT22;26811;53.160;8.202;2023-12-29T08:31:33;9.10;99.90
41060;DHT22;26811;53.160;8.202;2023-12-29T08:36:33;9.20;99.90
41060;DHT22;26811;53.160;8.202;2023-12-29T08:41:34;9.20;99.90
41060;DHT22;26811;53.160;8.202;2023-12-29T08:46:35;9.20;99.90
41060;DHT22;26811;53.160;8.202;2023-12-29T08:51:36;9.00;99.90
41060;DHT22;26811;53.160;8.202;2023-12-29T08:56:37;8.80;99.90
41060;DHT22;26811;53.160;8.202;2023-12-29T09:01:38;8.60;99.90
41060;DHT22;26811;53.160;8.202;2023-12-29T09:06:38;8.60;99.90
41060;DHT22;26811;53.160;8.202;2023-12-29T09:11:40;8.60;99.90
41060;DHT22;26811;53.160;8.202;2023-12-29T09:16:41;8.70;99.90
41060;DHT22;26811;53.160;8.202;2023-12-29T09:21:43;8.90;99.90
41060;DHT22;26811;53.160;8.202;2023-12-29T09:26:43;8.90;99.90
41060;DHT22;26811;53.160;8.202;2023-12-29T09:31:44;9.00;99.90
41060;DHT22;26811;53.160;8.202;2023-12-29T09:36:45;9.00;99.90
41060;DHT22;26811;53.160;8.202;2023-12-29T09:41:46;9.10;99.90
41060;DHT22;26811;53.160;8.202;2023-12-29T09:46:50;9.10;99.90
41060;DHT22;26811;53.160;8.202;2023-12-29T09:51:52;9.30;99.90
41060;DHT22;26811;53.160;8.202;2023-12-29T09:56:53;9.30;99.90
41060;DHT22;26811;53.160;8.202;2023-12-29T10:01:54;9.30;99.90
41060;DHT22;26811;53.160;8.202;2023-12-29T10:06:57;9.30;99.90
41060;DHT22;26811;53.160;8.202;2023-12-29T10:12:01;9.30;99.90
41060;DHT22;26811;53.160;8.202;2023-12-29T10:17:09;9.30;99.90
41060;DHT22;26811;53.160;8.202;2023-12-29T10:22:18;9.30;99.90
41060;DHT22;26811;53.160;8.202;2023-12-29T10:27:20;9.30;99.90
41060;DHT22;26811;53.160;8.202;2023-12-29T10:32:21;9.30;99.90
41060;DHT22;26811;53.160;8.202;2023-12-29T10:37:22;9.20;99.90
41060;DHT22;26811;53.160;8.202;2023-12-29T10:42:23;9.20;99.90
41060;DHT22;26811;53.160;8.202;2023-12-29T10:47:24;9.20;99.90
41060;DHT22;26811;53.160;8.202;2023-12-29T10:52:25;9.30;99.90
41060;DHT22;26811;53.160;8.202;2023-12-29T10:57:25;9.30;99.90
41060;DHT22;26811;53.160;8.202;2023-12-29T11:02:27;9.30;99.90
41060;DHT22;26811;53.160;8.202;2023-12-29T11:07:33;9.30;99.90
41060;DHT22;26811;53.160;8.202;2023-12-29T11:12:35;9.20;99.90
41060;DHT22;26811;53.160;8.202;2023-12-29T11:17:36;9.20;99.90
41060;DHT22;26811;53.160;8.202;2023-12-29T11:22:37;9.20;99.90
41060;DHT22;26811;53.160;8.202;2023-12-29T11:27:38;9.20;99.90
41060;DHT22;26811;53.160;8.202;2023-12-29T11:32:47;9.20;99.90
41060;DHT22;26811;53.160;8.202;2023-12-29T11:43:15;9.30;99.90
41060;DHT22;26811;53.160;8.202;2023-12-29T11:48:55;9.40;99.90
41060;DHT22;26811;53.160;8.202;2023-12-29T11:53:56;9.60;99.90
41060;DHT22;26811;53.160;8.202;2023-12-29T12:04:43;9.90;99.90
41060;DHT22;26811;53.160;8.202;2023-12-29T12:09:45;10.00;99.90
41060;DHT22;26811;53.160;8.202;2023-12-29T12:14:53;10.00;99.90
41060;DHT22;26811;53.160;8.202;2023-12-29T12:19:59;10.00;99.90
41060;DHT22;26811;53.160;8.202;2023-12-29T12:25:00;10.00;99.90
41060;DHT22;26811;53.160;8.202;2023-12-29T12:30:01;10.00;99.90
41060;DHT22;26811;53.160;8.202;2023-12-29T12:35:02;9.90;99.90
41060;DHT22;26811;53.160;8.202;2023-12-29T12:40:04;9.80;99.90
41060;DHT22;26811;53.160;8.202;2023-12-29T12:45:13;9.70;99.90
41060;DHT22;26811;53.160;8.202;2023-12-29T12:50:17;9.70;99.90
41060;DHT22;26811;53.160;8.202;2023-12-29T12:55:17;9.60;99.90
41060;DHT22;26811;53.160;8.202;2023-12-29T13:00:19;9.70;99.90
41060;DHT22;26811;53.160;8.202;2023-12-29T13:05:20;9.90;99.90
41060;DHT22;26811;53.160;8.202;2023-12-29T13:10:22;10.00;99.90
41060;DHT22;26811;53.160;8.202;2023-12-29T13:15:23;10.00;99.90
41060;DHT22;26811;53.160;8.202;2023-12-29T13:20:23;10.00;99.90
41060;DHT22;26811;53.160;8.202;2023-12-29T13:25:25;9.90;99.90
41060;DHT22;26811;53.160;8.202;2023-12-29T13:30:26;9.90;99.90
41060;DHT22;26811;53.160;8.202;2023-12-29T13:35:32;9.80;99.90
41060;DHT22;26811;53.160;8.202;2023-12-29T13:41:00;9.80;99.90
41060;DHT22;26811;53.160;8.202;2023-12-29T13:46:03;9.80;99.90
41060;DHT22;26811;53.160;8.202;2023-12-29T13:51:04;9.80;99.90
41060;DHT22;26811;53.160;8.202;2023-12-29T13:56:13;9.80;99.90
41060;DHT22;26811;53.160;8.202;2023-12-29T14:01:14;9.80;99.90
41060;DHT22;26811;53.160;8.202;2023-12-29T14:06:21;9.80;99.90
41060;DHT22;26811;53.160;8.202;2023-12-29T14:11:22;9.80;99.90
41060;DHT22;26811;53.160;8.202;2023-12-29T14:16:23;9.70;99.90
41060;DHT22;26811;53.160;8.202;2023-12-29T14:21:31;9.60;99.90
41060;DHT22;26811;53.160;8.202;2023-12-29T14:26:32;9.50;99.90
41060;DHT22;26811;53.160;8.202;2023-12-29T14:31:41;9.50;99.90
41060;DHT22;26811;53.160;8.202;2023-12-29T14:36:42;9.40;99.90
41060;DHT22;26811;53.160;8.202;2023-12-29T14:41:43;9.40;99.90
41060;DHT22;26811;53.160;8.202;2023-12-29T14:46:44;9.40;99.90
41060;DHT22;26811;53.160;8.202;2023-12-29T14:51:44;9.30;99.90
41060;DHT22;26811;53.160;8.202;2023-12-29T14:56:45;9.30;99.90
41060;DHT22;26811;53.160;8.202;2023-12-29T15:01:45;9.20;99.90
41060;DHT22;26811;53.160;8.202;2023-12-29T15:06:46;9.10;99.90
41060;DHT22;26811;53.160;8.202;2023-12-29T15:11:46;9.10;99.90
41060;DHT22;26811;53.160;8.202;2023-12-29T15:16:47;9.00;99.90
41060;DHT22;26811;53.160;8.202;2023-12-29T15:21:47;8.90;99.90
41060;DHT22;26811;53.160;8.202;2023-12-29T15:26:48;8.90;99.90
41060;DHT22;26811;53.160;8.202;2023-12-29T15:31:49;8.90;99.90
41060;DHT22;26811;53.160;8.202;2023-12-29T15:36:49;8.80;99.90
41060;DHT22;26811;53.160;8.202;2023-12-29T15:41:50;8.80;99.90
41060;DHT22;26811;53.160;8.202;2023-12-29T15:46:50;8.80;99.90
41060;DHT22;26811;53.160;8.202;2023-12-29T15:51:52;8.80;99.90
41060;DHT22;26811;53.160;8.202;2023-12-29T15:56:53;8.80;99.90
41060;DHT22;26811;53.160;8.202;2023-12-29T16:01:54;8.80;99.90
41060;DHT22;26811;53.160;8.202;2023-12-29T16:06:55;8.80;99.90
41060;DHT22;26811;53.160;8.202;2023-12-29T16:11:55;8.80;99.90
41060;DHT22;26811;53.160;8.202;2023-12-29T16:16:56;8.70;99.90
41060;DHT22;26811;53.160;8.202;2023-12-29T16:21:57;8.70;99.90
41060;DHT22;26811;53.160;8.202;2023-12-29T16:26:57;8.60;99.90
41060;DHT22;26811;53.160;8.202;2023-12-29T16:31:59;8.60;99.90
41060;DHT22;26811;53.160;8.202;2023-12-29T16:37:00;8.60;99.90
41060;DHT22;26811;53.160;8.202;2023-12-29T16:42:01;8.70;99.90
41060;DHT22;26811;53.160;8.202;2023-12-29T16:47:04;8.70;99.90
41060;DHT22;26811;53.160;8.202;2023-12-29T16:52:05;8.60;99.90
41060;DHT22;26811;53.160;8.202;2023-12-29T16:57:06;8.60;99.90
41060;DHT22;26811;53.160;8.202;2023-12-29T17:02:07;8.60;99.90
41060;DHT22;26811;53.160;8.202;2023-12-29T17:07:08;8.60;99.90
41060;DHT22;26811;53.160;8.202;2023-12-29T17:12:10;8.60;99.90
41060;DHT22;26811;53.160;8.202;2023-12-29T17:17:10;8.70;99.90
41060;DHT22;26811;53.160;8.202;2023-12-29T17:22:13;8.60;99.90
41060;DHT22;26811;53.160;8.202;2023-12-29T17:27:17;8.70;99.90
41060;DHT22;26811;53.160;8.202;2023-12-29T17:32:17;8.70;99.90
41060;DHT22;26811;53.160;8.202;2023-12-29T17:37:18;8.70;99.90
41060;DHT22;26811;53.160;8.202;2023-12-29T17:42:18;8.70;99.90
41060;DHT22;26811;53.160;8.202;2023-12-29T17:47:19;8.70;99.90
41060;DHT22;26811;53.160;8.202;2023-12-29T17:52:21;8.80;99.90
41060;DHT22;26811;53.160;8.202;2023-12-29T17:57:21;8.80;99.90
41060;DHT22;26811;53.160;8.202;2023-12-29T18:02:22;8.80;99.90
41060;DHT22;26811;53.160;8.202;2023-12-29T18:07:24;8.80;99.90
41060;DHT22;26811;53.160;8.202;2023-12-29T18:12:25;8.70;99.90
41060;DHT22;26811;53.160;8.202;2023-12-29T18:17:25;8.70;99.90
41060;DHT22;26811;53.160;8.202;2023-12-29T18:22:27;8.70;99.90
41060;DHT22;26811;53.160;8.202;2023-12-29T18:27:27;8.70;99.90
41060;DHT22;26811;53.160;8.202;2023-12-29T18:32:32;8.70;99.90
41060;DHT22;26811;53.160;8.202;2023-12-29T18:37:33;8.70;99.90
41060;DHT22;26811;53.160;8.202;2023-12-29T18:42:34;8.70;99.90
41060;DHT22;26811;53.160;8.202;2023-12-29T18:47:34;8.70;99.90
41060;DHT22;26811;53.160;8.202;2023-12-29T18:52:37;8.60;99.90
41060;DHT22;26811;53.160;8.202;2023-12-29T18:57:38;8.50;99.90
41060;DHT22;26811;53.160;8.202;2023-12-29T19:02:38;8.40;99.90
41060;DHT22;26811;53.160;8.202;2023-12-29T19:07:39;8.40;99.90
41060;DHT22;26811;53.160;8.202;2023-12-29T19:12:40;8.30;99.90
41060;DHT22;26811;53.160;8.202;2023-12-29T19:17:41;8.20;99.90
41060;DHT22;26811;53.160;8.202;2023-12-29T19:22:41;8.10;99.90
41060;DHT22;26811;53.160;8.202;2023-12-29T19:27:43;8.00;99.90
41060;DHT22;26811;53.160;8.202;2023-12-29T19:32:44;8.00;99.90
41060;DHT22;26811;53.160;8.202;2023-12-29T19:37:44;8.00;99.90
41060;DHT22;26811;53.160;8.202;2023-12-29T19:42:45;7.90;99.90
41060;DHT22;26811;53.160;8.202;2023-12-29T19:47:45;7.80;99.90
41060;DHT22;26811;53.160;8.202;2023-12-29T19:52:46;7.70;99.90
41060;DHT22;26811;53.160;8.202;2023-12-29T19:57:46;7.60;99.90
41060;DHT22;26811;53.160;8.202;2023-12-29T20:02:47;7.50;99.90
41060;DHT22;26811;53.160;8.202;2023-12-29T20:07:47;7.50;99.90
41060;DHT22;26811;53.160;8.202;2023-12-29T20:12:48;7.40;99.90
41060;DHT22;26811;53.160;8.202;2023-12-29T20:17:49;7.30;99.90
41060;DHT22;26811;53.160;8.202;2023-12-29T20:22:50;7.30;99.90
41060;DHT22;26811;53.160;8.202;2023-12-29T20:27:50;7.20;99.90
41060;DHT22;26811;53.160;8.202;2023-12-29T20:32:51;7.10;99.90
41060;DHT22;26811;53.160;8.202;2023-12-29T20:37:54;7.10;99.90
41060;DHT22;26811;53.160;8.202;2023-12-29T20:42:54;7.00;99.90
41060;DHT22;26811;53.160;8.202;2023-12-29T20:47:55;6.90;99.90
41060;DHT22;26811;53.160;8.202;2023-12-29T20:52:56;6.90;99.90
41060;DHT22;26811;53.160;8.202;2023-12-29T20:57:56;6.90;99.90
41060;DHT22;26811;53.160;8.202;2023-12-29T21:02:57;6.90;99.90
41060;DHT22;26811;53.160;8.202;2023-12-29T21:07:58;6.90;99.90
41060;DHT22;26811;53.160;8.202;2023-12-29T21:12:59;6.90;99.90
41060;DHT22;26811;53.160;8.202;2023-12-29T21:17:59;6.90;99.90
41060;DHT22;26811;53.160;8.202;2023-12-29T21:23:00;6.90;99.90
41060;DHT22;26811;53.160;8.202;2023-12-29T21:28:01;6.90;99.90
41060;DHT22;26811;53.160;8.202;2023-12-29T21:33:03;6.90;99.90
41060;DHT22;26811;53.160;8.202;2023-12-29T21:38:04;6.90;99.90
41060;DHT22;26811;53.160;8.202;2023-12-29T21:43:04;6.90;99.90
41060;DHT22;26811;53.160;8.202;2023-12-29T21:48:07;6.90;99.90
41060;DHT22;26811;53.160;8.202;2023-12-29T21:53:09;6.80;99.90
41060;DHT22;26811;53.160;8.202;2023-12-29T21:58:10;6.80;99.90
41060;DHT22;26811;53.160;8.202;2023-12-29T22:03:10;6.80;99.90
41060;DHT22;26811;53.160;8.202;2023-12-29T22:08:11;6.80;99.90
41060;DHT22;26811;53.160;8.202;2023-12-29T22:13:12;6.80;99.90
41060;DHT22;26811;53.160;8.202;2023-12-29T22:18:12;6.70;99.90
41060;DHT22;26811;53.160;8.202;2023-12-29T22:23:13;6.70;99.90
41060;DHT22;26811;53.160;8.202;2023-12-29T22:28:14;6.70;99.90
41060;DHT22;26811;53.160;8.202;2023-12-29T22:33:15;6.70;99.90
41060;DHT22;26811;53.160;8.202;2023-12-29T22:38:15;6.70;99.90
41060;DHT22;26811;53.160;8.202;2023-12-29T22:43:16;6.70;99.90
41060;DHT22;26811;53.160;8.202;2023-12-29T22:48:17;6.70;99.90
41060;DHT22;26811;53.160;8.202;2023-12-29T22:53:17;6.70;99.90
41060;DHT22;26811;53.160;8.202;2023-12-29T22:58:18;6.70;99.90
41060;DHT22;26811;53.160;8.202;2023-12-29T23:03:19;6.60;99.90
41060;DHT22;26811;53.160;8.202;2023-12-29T23:08:20;6.60;99.90
41060;DHT22;26811;53.160;8.202;2023-12-29T23:13:20;6.60;99.90
41060;DHT22;26811;53.160;8.202;2023-12-29T23:18:21;6.60;99.90
41060;DHT22;26811;53.160;8.202;2023-12-29T23:23:21;6.60;99.90
41060;DHT22;26811;53.160;8.202;2023-12-29T23:28:22;6.60;99.90
41060;DHT22;26811;53.160;8.202;2023-12-29T23:33:22;6.60;99.90
41060;DHT22;26811;53.160;8.202;2023-12-29T23:38:24;6.60;99.90
41060;DHT22;26811;53.160;8.202;2023-12-29T23:43:24;6.60;99.90
41060;DHT22;26811;53.160;8.202;2023-12-29T23:48:25;6.60;99.90
41060;DHT22;26811;53.160;8.202;2023-12-29T23:53:25;6.60;99.90
41060;DHT22;26811;53.160;8.202;2023-12-29T23:58:26;6.60;99.90
